sensor_id;sensor_type;location;lat;lon;timestamp;P1;durP1;ratioP1;P2;durP2;ratioP2
68821;SDS011;55834;50.870;4.606;2024-02-14T00:00:26;2.23;;;2.03;;
68821;SDS011;55834;50.870;4.606;2024-02-14T00:02:51;2.80;;;2.13;;
68821;SDS011;55834;50.870;4.606;2024-02-14T00:05:17;4.20;;;2.85;;
68821;SDS011;55834;50.870;4.606;2024-02-14T00:07:43;3.38;;;2.05;;
68821;SDS011;55834;50.870;4.606;2024-02-14T00:10:08;2.35;;;2.15;;
68821;SDS011;55834;50.870;4.606;2024-02-14T00:12:34;4.13;;;3.00;;
68821;SDS011;55834;50.870;4.606;2024-02-14T00:15:04;5.13;;;3.15;;
68821;SDS011;55834;50.870;4.606;2024-02-14T00:17:31;4.22;;;2.60;;
68821;SDS011;55834;50.870;4.606;2024-02-14T00:19:57;4.32;;;3.15;;
68821;SDS011;55834;50.870;4.606;2024-02-14T00:22:23;2.92;;;2.45;;
68821;SDS011;55834;50.870;4.606;2024-02-14T00:24:48;3.83;;;2.67;;
68821;SDS011;55834;50.870;4.606;2024-02-14T00:27:14;3.33;;;2.67;;
68821;SDS011;55834;50.870;4.606;2024-02-14T00:29:39;3.37;;;2.20;;
68821;SDS011;55834;50.870;4.606;2024-02-14T00:32:05;4.80;;;2.90;;
68821;SDS011;55834;50.870;4.606;2024-02-14T00:34:31;2.65;;;1.98;;
68821;SDS011;55834;50.870;4.606;2024-02-14T00:36:56;3.60;;;2.60;;
68821;SDS011;55834;50.870;4.606;2024-02-14T00:39:21;2.70;;;1.97;;
68821;SDS011;55834;50.870;4.606;2024-02-14T00:41:47;3.00;;;2.80;;
68821;SDS011;55834;50.870;4.606;2024-02-14T00:44:12;2.60;;;2.15;;
68821;SDS011;55834;50.870;4.606;2024-02-14T00:46:41;2.05;;;1.92;;
68821;SDS011;55834;50.870;4.606;2024-02-14T00:49:08;2.67;;;1.75;;
68821;SDS011;55834;50.870;4.606;2024-02-14T00:51:33;3.83;;;2.30;;
68821;SDS011;55834;50.870;4.606;2024-02-14T00:54:00;3.35;;;2.08;;
68821;SDS011;55834;50.870;4.606;2024-02-14T00:56:25;3.53;;;2.38;;
68821;SDS011;55834;50.870;4.606;2024-02-14T00:58:50;3.20;;;2.28;;
68821;SDS011;55834;50.870;4.606;2024-02-14T01:01:16;3.20;;;2.47;;
68821;SDS011;55834;50.870;4.606;2024-02-14T01:03:41;3.20;;;2.27;;
68821;SDS011;55834;50.870;4.606;2024-02-14T01:06:06;2.20;;;1.57;;
68821;SDS011;55834;50.870;4.606;2024-02-14T01:08:32;2.70;;;2.23;;
68821;SDS011;55834;50.870;4.606;2024-02-14T01:10:58;3.40;;;2.35;;
68821;SDS011;55834;50.870;4.606;2024-02-14T01:13:24;4.13;;;2.17;;
68821;SDS011;55834;50.870;4.606;2024-02-14T01:15:49;2.97;;;2.50;;
68821;SDS011;55834;50.870;4.606;2024-02-14T01:18:15;3.38;;;2.22;;
68821;SDS011;55834;50.870;4.606;2024-02-14T01:20:40;3.43;;;2.33;;
68821;SDS011;55834;50.870;4.606;2024-02-14T01:23:05;2.60;;;1.93;;
68821;SDS011;55834;50.870;4.606;2024-02-14T01:25:31;3.20;;;2.35;;
68821;SDS011;55834;50.870;4.606;2024-02-14T01:27:58;2.45;;;2.08;;
68821;SDS011;55834;50.870;4.606;2024-02-14T01:30:24;4.70;;;2.25;;
68821;SDS011;55834;50.870;4.606;2024-02-14T01:32:50;5.47;;;2.75;;
68821;SDS011;55834;50.870;4.606;2024-02-14T01:35:15;3.55;;;2.20;;
68821;SDS011;55834;50.870;4.606;2024-02-14T01:37:41;3.03;;;2.33;;
68821;SDS011;55834;50.870;4.606;2024-02-14T01:40:07;7.38;;;2.60;;
68821;SDS011;55834;50.870;4.606;2024-02-14T01:42:33;2.47;;;1.90;;
68821;SDS011;55834;50.870;4.606;2024-02-14T01:44:59;3.45;;;2.08;;
68821;SDS011;55834;50.870;4.606;2024-02-14T01:47:24;3.70;;;2.63;;
68821;SDS011;55834;50.870;4.606;2024-02-14T01:49:49;2.93;;;2.63;;
68821;SDS011;55834;50.870;4.606;2024-02-14T01:52:15;4.70;;;2.47;;
68821;SDS011;55834;50.870;4.606;2024-02-14T01:54:40;3.10;;;2.35;;
68821;SDS011;55834;50.870;4.606;2024-02-14T01:57:06;3.72;;;2.10;;
68821;SDS011;55834;50.870;4.606;2024-02-14T01:59:33;5.40;;;2.50;;
68821;SDS011;55834;50.870;4.606;2024-02-14T02:02:03;2.42;;;2.25;;
68821;SDS011;55834;50.870;4.606;2024-02-14T02:04:32;3.05;;;2.55;;
68821;SDS011;55834;50.870;4.606;2024-02-14T02:06:57;5.53;;;2.70;;
68821;SDS011;55834;50.870;4.606;2024-02-14T02:09:23;6.97;;;2.57;;
68821;SDS011;55834;50.870;4.606;2024-02-14T02:11:48;2.85;;;2.60;;
68821;SDS011;55834;50.870;4.606;2024-02-14T02:14:15;2.83;;;2.60;;
68821;SDS011;55834;50.870;4.606;2024-02-14T02:16:41;3.08;;;2.70;;
68821;SDS011;55834;50.870;4.606;2024-02-14T02:19:07;3.78;;;2.55;;
68821;SDS011;55834;50.870;4.606;2024-02-14T02:21:34;3.40;;;2.75;;
68821;SDS011;55834;50.870;4.606;2024-02-14T02:24:00;4.05;;;2.97;;
68821;SDS011;55834;50.870;4.606;2024-02-14T02:26:26;3.08;;;2.75;;
68821;SDS011;55834;50.870;4.606;2024-02-14T02:28:52;5.57;;;3.35;;
68821;SDS011;55834;50.870;4.606;2024-02-14T02:31:17;5.07;;;2.83;;
68821;SDS011;55834;50.870;4.606;2024-02-14T02:33:43;4.60;;;2.47;;
68821;SDS011;55834;50.870;4.606;2024-02-14T02:36:08;5.57;;;3.67;;
68821;SDS011;55834;50.870;4.606;2024-02-14T02:38:35;4.75;;;2.65;;
68821;SDS011;55834;50.870;4.606;2024-02-14T02:41:01;3.72;;;2.67;;
68821;SDS011;55834;50.870;4.606;2024-02-14T02:43:28;3.00;;;2.17;;
68821;SDS011;55834;50.870;4.606;2024-02-14T02:45:54;3.22;;;2.63;;
68821;SDS011;55834;50.870;4.606;2024-02-14T02:48:19;3.65;;;2.78;;
68821;SDS011;55834;50.870;4.606;2024-02-14T02:50:48;3.05;;;2.08;;
68821;SDS011;55834;50.870;4.606;2024-02-14T02:53:14;2.95;;;2.60;;
68821;SDS011;55834;50.870;4.606;2024-02-14T02:55:40;2.85;;;2.47;;
68821;SDS011;55834;50.870;4.606;2024-02-14T02:58:06;2.42;;;1.95;;
68821;SDS011;55834;50.870;4.606;2024-02-14T03:00:32;3.78;;;2.70;;
68821;SDS011;55834;50.870;4.606;2024-02-14T03:02:58;5.45;;;3.40;;
68821;SDS011;55834;50.870;4.606;2024-02-14T03:05:23;3.80;;;2.30;;
68821;SDS011;55834;50.870;4.606;2024-02-14T03:07:49;9.20;;;3.42;;
68821;SDS011;55834;50.870;4.606;2024-02-14T03:10:16;5.70;;;2.55;;
68821;SDS011;55834;50.870;4.606;2024-02-14T03:12:44;4.80;;;2.25;;
68821;SDS011;55834;50.870;4.606;2024-02-14T03:15:13;4.60;;;3.65;;
68821;SDS011;55834;50.870;4.606;2024-02-14T03:17:39;5.85;;;3.33;;
68821;SDS011;55834;50.870;4.606;2024-02-14T03:20:04;5.50;;;2.88;;
68821;SDS011;55834;50.870;4.606;2024-02-14T03:22:40;4.18;;;3.17;;
68821;SDS011;55834;50.870;4.606;2024-02-14T03:25:18;8.23;;;3.78;;
68821;SDS011;55834;50.870;4.606;2024-02-14T03:27:45;5.03;;;3.50;;
68821;SDS011;55834;50.870;4.606;2024-02-14T03:30:14;4.28;;;3.53;;
68821;SDS011;55834;50.870;4.606;2024-02-14T03:32:41;4.85;;;3.75;;
68821;SDS011;55834;50.870;4.606;2024-02-14T03:35:07;3.60;;;2.88;;
68821;SDS011;55834;50.870;4.606;2024-02-14T03:37:32;6.20;;;3.60;;
68821;SDS011;55834;50.870;4.606;2024-02-14T03:39:58;4.50;;;3.17;;
68821;SDS011;55834;50.870;4.606;2024-02-14T03:42:24;5.60;;;3.22;;
68821;SDS011;55834;50.870;4.606;2024-02-14T03:44:51;4.55;;;3.15;;
68821;SDS011;55834;50.870;4.606;2024-02-14T03:47:16;5.95;;;3.03;;
68821;SDS011;55834;50.870;4.606;2024-02-14T03:49:42;4.15;;;3.17;;
68821;SDS011;55834;50.870;4.606;2024-02-14T03:52:07;3.63;;;2.87;;
68821;SDS011;55834;50.870;4.606;2024-02-14T03:54:37;5.28;;;4.10;;
68821;SDS011;55834;50.870;4.606;2024-02-14T03:57:03;4.32;;;3.47;;
68821;SDS011;55834;50.870;4.606;2024-02-14T03:59:35;6.88;;;3.40;;
68821;SDS011;55834;50.870;4.606;2024-02-14T04:02:01;3.75;;;3.35;;
68821;SDS011;55834;50.870;4.606;2024-02-14T04:04:26;4.97;;;2.90;;
68821;SDS011;55834;50.870;4.606;2024-02-14T04:06:51;5.60;;;3.47;;
68821;SDS011;55834;50.870;4.606;2024-02-14T04:09:17;4.95;;;3.00;;
68821;SDS011;55834;50.870;4.606;2024-02-14T04:11:42;4.40;;;3.53;;
68821;SDS011;55834;50.870;4.606;2024-02-14T04:14:08;4.90;;;3.47;;
68821;SDS011;55834;50.870;4.606;2024-02-14T04:16:33;6.00;;;3.38;;
68821;SDS011;55834;50.870;4.606;2024-02-14T04:18:58;4.20;;;2.93;;
68821;SDS011;55834;50.870;4.606;2024-02-14T04:21:24;3.97;;;2.93;;
68821;SDS011;55834;50.870;4.606;2024-02-14T04:23:49;5.93;;;3.45;;
68821;SDS011;55834;50.870;4.606;2024-02-14T04:26:21;6.03;;;4.63;;
68821;SDS011;55834;50.870;4.606;2024-02-14T04:28:47;7.07;;;3.67;;
68821;SDS011;55834;50.870;4.606;2024-02-14T04:31:12;4.45;;;4.03;;
68821;SDS011;55834;50.870;4.606;2024-02-14T04:33:38;4.22;;;3.15;;
68821;SDS011;55834;50.870;4.606;2024-02-14T04:36:03;8.33;;;4.33;;
68821;SDS011;55834;50.870;4.606;2024-02-14T04:38:31;3.08;;;2.67;;
68821;SDS011;55834;50.870;4.606;2024-02-14T04:40:56;6.70;;;3.38;;
68821;SDS011;55834;50.870;4.606;2024-02-14T04:43:23;4.88;;;3.17;;
68821;SDS011;55834;50.870;4.606;2024-02-14T04:45:51;5.15;;;3.28;;
68821;SDS011;55834;50.870;4.606;2024-02-14T04:48:17;5.55;;;3.55;;
68821;SDS011;55834;50.870;4.606;2024-02-14T04:50:42;3.65;;;2.90;;
68821;SDS011;55834;50.870;4.606;2024-02-14T04:53:08;4.25;;;3.70;;
68821;SDS011;55834;50.870;4.606;2024-02-14T04:55:33;6.22;;;3.83;;
68821;SDS011;55834;50.870;4.606;2024-02-14T04:57:59;4.57;;;3.40;;
68821;SDS011;55834;50.870;4.606;2024-02-14T05:00:24;9.18;;;3.60;;
68821;SDS011;55834;50.870;4.606;2024-02-14T05:02:50;4.03;;;3.60;;
68821;SDS011;55834;50.870;4.606;2024-02-14T05:05:16;3.92;;;3.22;;
68821;SDS011;55834;50.870;4.606;2024-02-14T05:07:41;6.60;;;4.20;;
68821;SDS011;55834;50.870;4.606;2024-02-14T05:10:07;7.83;;;3.87;;
68821;SDS011;55834;50.870;4.606;2024-02-14T05:12:32;6.65;;;4.63;;
68821;SDS011;55834;50.870;4.606;2024-02-14T05:14:58;5.28;;;3.88;;
68821;SDS011;55834;50.870;4.606;2024-02-14T05:17:24;4.30;;;3.83;;
68821;SDS011;55834;50.870;4.606;2024-02-14T05:19:49;5.47;;;3.28;;
68821;SDS011;55834;50.870;4.606;2024-02-14T05:22:14;5.97;;;4.20;;
68821;SDS011;55834;50.870;4.606;2024-02-14T05:24:40;3.93;;;3.50;;
68821;SDS011;55834;50.870;4.606;2024-02-14T05:27:05;10.30;;;4.93;;
68821;SDS011;55834;50.870;4.606;2024-02-14T05:29:31;4.80;;;3.90;;
68821;SDS011;55834;50.870;4.606;2024-02-14T05:31:56;7.32;;;4.30;;
68821;SDS011;55834;50.870;4.606;2024-02-14T05:34:22;5.00;;;3.85;;
68821;SDS011;55834;50.870;4.606;2024-02-14T05:36:47;4.40;;;3.92;;
68821;SDS011;55834;50.870;4.606;2024-02-14T05:39:13;6.50;;;4.57;;
68821;SDS011;55834;50.870;4.606;2024-02-14T05:41:42;6.88;;;3.92;;
68821;SDS011;55834;50.870;4.606;2024-02-14T05:44:08;5.18;;;3.53;;
68821;SDS011;55834;50.870;4.606;2024-02-14T05:46:33;5.57;;;4.83;;
68821;SDS011;55834;50.870;4.606;2024-02-14T05:48:58;6.40;;;4.03;;
68821;SDS011;55834;50.870;4.606;2024-02-14T05:51:24;5.07;;;3.72;;
68821;SDS011;55834;50.870;4.606;2024-02-14T05:53:49;8.10;;;4.95;;
68821;SDS011;55834;50.870;4.606;2024-02-14T05:56:15;4.93;;;4.43;;
68821;SDS011;55834;50.870;4.606;2024-02-14T05:58:40;5.63;;;4.53;;
68821;SDS011;55834;50.870;4.606;2024-02-14T06:01:06;7.77;;;4.80;;
68821;SDS011;55834;50.870;4.606;2024-02-14T06:03:31;6.10;;;4.90;;
68821;SDS011;55834;50.870;4.606;2024-02-14T06:05:56;4.78;;;3.95;;
68821;SDS011;55834;50.870;4.606;2024-02-14T06:08:22;6.00;;;4.53;;
68821;SDS011;55834;50.870;4.606;2024-02-14T06:10:48;9.05;;;3.80;;
68821;SDS011;55834;50.870;4.606;2024-02-14T06:13:14;5.45;;;4.10;;
68821;SDS011;55834;50.870;4.606;2024-02-14T06:15:40;8.60;;;4.10;;
68821;SDS011;55834;50.870;4.606;2024-02-14T06:18:05;5.68;;;3.83;;
68821;SDS011;55834;50.870;4.606;2024-02-14T06:20:31;4.43;;;3.80;;
68821;SDS011;55834;50.870;4.606;2024-02-14T06:22:57;5.18;;;4.15;;
68821;SDS011;55834;50.870;4.606;2024-02-14T06:25:22;6.82;;;3.92;;
68821;SDS011;55834;50.870;4.606;2024-02-14T06:27:48;8.68;;;4.03;;
68821;SDS011;55834;50.870;4.606;2024-02-14T06:30:13;6.22;;;4.22;;
68821;SDS011;55834;50.870;4.606;2024-02-14T06:32:39;4.03;;;3.25;;
68821;SDS011;55834;50.870;4.606;2024-02-14T06:35:04;7.20;;;4.47;;
68821;SDS011;55834;50.870;4.606;2024-02-14T06:37:30;7.53;;;4.75;;
68821;SDS011;55834;50.870;4.606;2024-02-14T06:39:55;6.70;;;3.47;;
68821;SDS011;55834;50.870;4.606;2024-02-14T06:42:20;5.63;;;4.50;;
68821;SDS011;55834;50.870;4.606;2024-02-14T06:44:46;9.48;;;4.53;;
68821;SDS011;55834;50.870;4.606;2024-02-14T06:47:11;5.53;;;4.18;;
68821;SDS011;55834;50.870;4.606;2024-02-14T06:49:37;7.00;;;4.40;;
68821;SDS011;55834;50.870;4.606;2024-02-14T06:52:03;5.55;;;4.05;;
68821;SDS011;55834;50.870;4.606;2024-02-14T06:54:28;9.32;;;5.05;;
68821;SDS011;55834;50.870;4.606;2024-02-14T06:56:54;5.53;;;3.50;;
68821;SDS011;55834;50.870;4.606;2024-02-14T06:59:19;6.87;;;4.43;;
68821;SDS011;55834;50.870;4.606;2024-02-14T07:01:45;4.40;;;3.65;;
68821;SDS011;55834;50.870;4.606;2024-02-14T07:04:10;5.22;;;3.75;;
68821;SDS011;55834;50.870;4.606;2024-02-14T07:06:35;17.93;;;4.87;;
68821;SDS011;55834;50.870;4.606;2024-02-14T07:09:01;8.80;;;5.45;;
68821;SDS011;55834;50.870;4.606;2024-02-14T07:11:26;4.90;;;3.90;;
68821;SDS011;55834;50.870;4.606;2024-02-14T07:13:52;7.78;;;3.78;;
68821;SDS011;55834;50.870;4.606;2024-02-14T07:16:17;9.90;;;4.93;;
68821;SDS011;55834;50.870;4.606;2024-02-14T07:18:42;6.13;;;3.90;;
68821;SDS011;55834;50.870;4.606;2024-02-14T07:21:08;8.90;;;4.87;;
68821;SDS011;55834;50.870;4.606;2024-02-14T07:23:33;8.65;;;4.10;;
68821;SDS011;55834;50.870;4.606;2024-02-14T07:25:59;6.73;;;5.17;;
68821;SDS011;55834;50.870;4.606;2024-02-14T07:28:25;12.75;;;4.78;;
68821;SDS011;55834;50.870;4.606;2024-02-14T07:30:51;5.32;;;4.07;;
68821;SDS011;55834;50.870;4.606;2024-02-14T07:33:16;7.93;;;4.10;;
68821;SDS011;55834;50.870;4.606;2024-02-14T07:35:42;6.17;;;4.23;;
68821;SDS011;55834;50.870;4.606;2024-02-14T07:38:07;6.07;;;4.90;;
68821;SDS011;55834;50.870;4.606;2024-02-14T07:40:33;8.00;;;5.30;;
68821;SDS011;55834;50.870;4.606;2024-02-14T07:42:59;9.38;;;5.82;;
68821;SDS011;55834;50.870;4.606;2024-02-14T07:45:25;7.72;;;4.95;;
68821;SDS011;55834;50.870;4.606;2024-02-14T07:47:51;8.10;;;4.75;;
68821;SDS011;55834;50.870;4.606;2024-02-14T07:50:16;6.72;;;5.07;;
68821;SDS011;55834;50.870;4.606;2024-02-14T07:52:42;7.70;;;5.30;;
68821;SDS011;55834;50.870;4.606;2024-02-14T07:55:11;5.47;;;3.90;;
68821;SDS011;55834;50.870;4.606;2024-02-14T07:57:39;10.32;;;4.93;;
68821;SDS011;55834;50.870;4.606;2024-02-14T08:00:06;7.50;;;4.50;;
68821;SDS011;55834;50.870;4.606;2024-02-14T08:02:33;8.13;;;4.55;;
68821;SDS011;55834;50.870;4.606;2024-02-14T08:04:59;7.95;;;4.35;;
68821;SDS011;55834;50.870;4.606;2024-02-14T08:07:25;9.43;;;4.45;;
68821;SDS011;55834;50.870;4.606;2024-02-14T08:09:50;4.90;;;4.00;;
68821;SDS011;55834;50.870;4.606;2024-02-14T08:12:15;7.43;;;3.90;;
68821;SDS011;55834;50.870;4.606;2024-02-14T08:14:41;7.40;;;5.47;;
68821;SDS011;55834;50.870;4.606;2024-02-14T08:17:06;7.80;;;4.73;;
68821;SDS011;55834;50.870;4.606;2024-02-14T08:19:31;6.53;;;4.15;;
68821;SDS011;55834;50.870;4.606;2024-02-14T08:21:57;7.90;;;3.60;;
68821;SDS011;55834;50.870;4.606;2024-02-14T08:24:25;4.85;;;3.80;;
68821;SDS011;55834;50.870;4.606;2024-02-14T08:26:51;9.15;;;4.80;;
68821;SDS011;55834;50.870;4.606;2024-02-14T08:29:17;5.40;;;3.90;;
68821;SDS011;55834;50.870;4.606;2024-02-14T08:31:43;6.82;;;4.97;;
68821;SDS011;55834;50.870;4.606;2024-02-14T08:34:10;5.47;;;4.47;;
68821;SDS011;55834;50.870;4.606;2024-02-14T08:36:35;7.30;;;4.90;;
68821;SDS011;55834;50.870;4.606;2024-02-14T08:39:08;6.72;;;4.55;;
68821;SDS011;55834;50.870;4.606;2024-02-14T08:41:35;7.38;;;4.93;;
68821;SDS011;55834;50.870;4.606;2024-02-14T08:44:08;8.68;;;4.70;;
68821;SDS011;55834;50.870;4.606;2024-02-14T08:46:33;7.70;;;5.70;;
68821;SDS011;55834;50.870;4.606;2024-02-14T08:49:02;7.90;;;5.17;;
68821;SDS011;55834;50.870;4.606;2024-02-14T08:51:30;6.75;;;5.05;;
68821;SDS011;55834;50.870;4.606;2024-02-14T08:53:55;9.43;;;5.32;;
68821;SDS011;55834;50.870;4.606;2024-02-14T08:56:24;4.63;;;3.97;;
68821;SDS011;55834;50.870;4.606;2024-02-14T08:58:50;13.10;;;5.50;;
68821;SDS011;55834;50.870;4.606;2024-02-14T09:01:15;9.40;;;5.47;;
68821;SDS011;55834;50.870;4.606;2024-02-14T09:03:41;7.40;;;4.82;;
68821;SDS011;55834;50.870;4.606;2024-02-14T09:06:12;10.90;;;5.30;;
68821;SDS011;55834;50.870;4.606;2024-02-14T09:08:38;6.95;;;4.45;;
68821;SDS011;55834;50.870;4.606;2024-02-14T09:11:03;10.30;;;5.80;;
68821;SDS011;55834;50.870;4.606;2024-02-14T09:13:29;8.80;;;5.45;;
68821;SDS011;55834;50.870;4.606;2024-02-14T09:15:54;8.27;;;5.37;;
68821;SDS011;55834;50.870;4.606;2024-02-14T09:18:20;13.25;;;5.65;;
68821;SDS011;55834;50.870;4.606;2024-02-14T09:20:46;6.70;;;4.33;;
68821;SDS011;55834;50.870;4.606;2024-02-14T09:23:12;6.40;;;5.10;;
68821;SDS011;55834;50.870;4.606;2024-02-14T09:25:39;9.18;;;6.50;;
68821;SDS011;55834;50.870;4.606;2024-02-14T09:28:05;10.55;;;6.30;;
68821;SDS011;55834;50.870;4.606;2024-02-14T09:30:32;8.50;;;5.32;;
68821;SDS011;55834;50.870;4.606;2024-02-14T09:32:58;8.70;;;4.55;;
68821;SDS011;55834;50.870;4.606;2024-02-14T09:35:24;9.27;;;5.40;;
68821;SDS011;55834;50.870;4.606;2024-02-14T09:37:50;9.15;;;5.25;;
68821;SDS011;55834;50.870;4.606;2024-02-14T09:40:15;8.88;;;6.07;;
68821;SDS011;55834;50.870;4.606;2024-02-14T09:42:44;6.57;;;5.60;;
68821;SDS011;55834;50.870;4.606;2024-02-14T09:45:25;7.90;;;6.00;;
68821;SDS011;55834;50.870;4.606;2024-02-14T09:47:52;7.22;;;5.22;;
68821;SDS011;55834;50.870;4.606;2024-02-14T09:50:18;6.50;;;5.53;;
68821;SDS011;55834;50.870;4.606;2024-02-14T09:52:46;6.03;;;4.57;;
68821;SDS011;55834;50.870;4.606;2024-02-14T09:55:14;8.68;;;5.35;;
68821;SDS011;55834;50.870;4.606;2024-02-14T09:57:41;8.63;;;6.03;;
68821;SDS011;55834;50.870;4.606;2024-02-14T10:00:10;9.50;;;7.53;;
68821;SDS011;55834;50.870;4.606;2024-02-14T10:02:36;11.68;;;6.22;;
68821;SDS011;55834;50.870;4.606;2024-02-14T10:05:03;22.77;;;14.93;;
68821;SDS011;55834;50.870;4.606;2024-02-14T10:07:28;13.70;;;8.30;;
68821;SDS011;55834;50.870;4.606;2024-02-14T10:09:54;12.40;;;8.30;;
68821;SDS011;55834;50.870;4.606;2024-02-14T10:12:19;9.17;;;5.10;;
68821;SDS011;55834;50.870;4.606;2024-02-14T10:14:45;7.90;;;5.97;;
68821;SDS011;55834;50.870;4.606;2024-02-14T10:17:17;6.28;;;4.70;;
68821;SDS011;55834;50.870;4.606;2024-02-14T10:19:55;5.32;;;4.15;;
68821;SDS011;55834;50.870;4.606;2024-02-14T10:22:24;4.10;;;3.30;;
68821;SDS011;55834;50.870;4.606;2024-02-14T10:24:50;4.70;;;3.20;;
68821;SDS011;55834;50.870;4.606;2024-02-14T10:27:15;3.55;;;3.22;;
68821;SDS011;55834;50.870;4.606;2024-02-14T10:29:41;6.30;;;4.07;;
68821;SDS011;55834;50.870;4.606;2024-02-14T10:32:08;5.88;;;3.85;;
68821;SDS011;55834;50.870;4.606;2024-02-14T10:34:33;5.23;;;3.53;;
68821;SDS011;55834;50.870;4.606;2024-02-14T10:37:00;3.72;;;3.33;;
68821;SDS011;55834;50.870;4.606;2024-02-14T10:39:27;4.30;;;2.63;;
68821;SDS011;55834;50.870;4.606;2024-02-14T10:41:56;5.95;;;2.45;;
68821;SDS011;55834;50.870;4.606;2024-02-14T10:44:22;3.08;;;2.08;;
68821;SDS011;55834;50.870;4.606;2024-02-14T10:46:48;2.63;;;2.33;;
68821;SDS011;55834;50.870;4.606;2024-02-14T10:49:16;5.28;;;2.83;;
68821;SDS011;55834;50.870;4.606;2024-02-14T10:51:44;2.60;;;2.35;;
68821;SDS011;55834;50.870;4.606;2024-02-14T10:54:13;3.85;;;2.30;;
68821;SDS011;55834;50.870;4.606;2024-02-14T10:56:42;3.58;;;2.25;;
68821;SDS011;55834;50.870;4.606;2024-02-14T10:59:08;3.25;;;1.98;;
68821;SDS011;55834;50.870;4.606;2024-02-14T11:01:36;2.00;;;1.60;;
68821;SDS011;55834;50.870;4.606;2024-02-14T11:04:02;4.05;;;2.47;;
68821;SDS011;55834;50.870;4.606;2024-02-14T11:06:30;1.70;;;1.60;;
68821;SDS011;55834;50.870;4.606;2024-02-14T11:09:00;3.70;;;2.03;;
68821;SDS011;55834;50.870;4.606;2024-02-14T11:11:31;3.42;;;2.08;;
68821;SDS011;55834;50.870;4.606;2024-02-14T11:13:57;2.10;;;1.80;;
68821;SDS011;55834;50.870;4.606;2024-02-14T11:16:26;2.45;;;1.58;;
68821;SDS011;55834;50.870;4.606;2024-02-14T11:19:10;2.78;;;1.52;;
68821;SDS011;55834;50.870;4.606;2024-02-14T11:21:44;2.55;;;1.40;;
68821;SDS011;55834;50.870;4.606;2024-02-14T11:24:12;1.52;;;1.42;;
68821;SDS011;55834;50.870;4.606;2024-02-14T11:26:48;1.63;;;1.52;;
68821;SDS011;55834;50.870;4.606;2024-02-14T11:29:16;3.95;;;1.42;;
68821;SDS011;55834;50.870;4.606;2024-02-14T11:31:42;1.88;;;1.77;;
68821;SDS011;55834;50.870;4.606;2024-02-14T11:34:11;2.05;;;1.60;;
68821;SDS011;55834;50.870;4.606;2024-02-14T11:36:37;1.52;;;1.27;;
68821;SDS011;55834;50.870;4.606;2024-02-14T11:39:04;1.85;;;1.65;;
68821;SDS011;55834;50.870;4.606;2024-02-14T11:41:32;1.85;;;1.55;;
68821;SDS011;55834;50.870;4.606;2024-02-14T11:44:00;0.88;;;0.80;;
68821;SDS011;55834;50.870;4.606;2024-02-14T11:46:28;1.30;;;1.20;;
68821;SDS011;55834;50.870;4.606;2024-02-14T11:48:55;2.10;;;1.42;;
68821;SDS011;55834;50.870;4.606;2024-02-14T11:51:22;2.00;;;1.90;;
68821;SDS011;55834;50.870;4.606;2024-02-14T11:53:47;1.52;;;1.42;;
68821;SDS011;55834;50.870;4.606;2024-02-14T11:56:14;1.60;;;1.50;;
68821;SDS011;55834;50.870;4.606;2024-02-14T12:01:05;2.33;;;2.10;;
68821;SDS011;55834;50.870;4.606;2024-02-14T12:03:30;2.15;;;1.60;;
68821;SDS011;55834;50.870;4.606;2024-02-14T12:05:56;1.92;;;1.75;;
68821;SDS011;55834;50.870;4.606;2024-02-14T12:08:22;2.70;;;1.30;;
68821;SDS011;55834;50.870;4.606;2024-02-14T12:10:48;2.08;;;1.83;;
68821;SDS011;55834;50.870;4.606;2024-02-14T12:13:20;1.50;;;1.40;;
68821;SDS011;55834;50.870;4.606;2024-02-14T12:15:47;4.00;;;2.10;;
68821;SDS011;55834;50.870;4.606;2024-02-14T12:18:14;2.25;;;2.05;;
68821;SDS011;55834;50.870;4.606;2024-02-14T12:23:06;1.75;;;1.65;;
68821;SDS011;55834;50.870;4.606;2024-02-14T12:25:32;2.15;;;1.63;;
68821;SDS011;55834;50.870;4.606;2024-02-14T12:27:59;2.67;;;1.80;;
68821;SDS011;55834;50.870;4.606;2024-02-14T12:33:12;5.00;;;2.75;;
68821;SDS011;55834;50.870;4.606;2024-02-14T12:35:41;3.33;;;2.03;;
68821;SDS011;55834;50.870;4.606;2024-02-14T12:38:10;5.47;;;3.38;;
68821;SDS011;55834;50.870;4.606;2024-02-14T12:40:37;4.05;;;2.75;;
68821;SDS011;55834;50.870;4.606;2024-02-14T12:43:02;3.70;;;2.58;;
68821;SDS011;55834;50.870;4.606;2024-02-14T12:45:29;3.83;;;2.30;;
68821;SDS011;55834;50.870;4.606;2024-02-14T12:47:54;3.95;;;3.65;;
68821;SDS011;55834;50.870;4.606;2024-02-14T12:50:19;3.42;;;2.47;;
68821;SDS011;55834;50.870;4.606;2024-02-14T12:52:47;6.28;;;3.88;;
68821;SDS011;55834;50.870;4.606;2024-02-14T12:55:13;15.65;;;7.55;;
68821;SDS011;55834;50.870;4.606;2024-02-14T12:57:39;15.95;;;8.68;;
68821;SDS011;55834;50.870;4.606;2024-02-14T13:00:05;9.77;;;8.00;;
68821;SDS011;55834;50.870;4.606;2024-02-14T13:02:33;5.40;;;4.90;;
68821;SDS011;55834;50.870;4.606;2024-02-14T13:04:59;5.88;;;4.60;;
68821;SDS011;55834;50.870;4.606;2024-02-14T13:07:24;6.47;;;3.67;;
68821;SDS011;55834;50.870;4.606;2024-02-14T13:09:50;4.60;;;3.38;;
68821;SDS011;55834;50.870;4.606;2024-02-14T13:12:16;3.55;;;3.13;;
68821;SDS011;55834;50.870;4.606;2024-02-14T13:14:41;4.32;;;3.35;;
68821;SDS011;55834;50.870;4.606;2024-02-14T13:17:07;4.97;;;2.80;;
68821;SDS011;55834;50.870;4.606;2024-02-14T13:19:32;3.37;;;2.97;;
68821;SDS011;55834;50.870;4.606;2024-02-14T13:21:58;3.53;;;2.83;;
68821;SDS011;55834;50.870;4.606;2024-02-14T13:24:23;3.17;;;2.88;;
68821;SDS011;55834;50.870;4.606;2024-02-14T13:26:49;4.73;;;3.07;;
68821;SDS011;55834;50.870;4.606;2024-02-14T13:29:14;4.03;;;2.83;;
68821;SDS011;55834;50.870;4.606;2024-02-14T13:31:42;5.53;;;2.85;;
68821;SDS011;55834;50.870;4.606;2024-02-14T13:34:07;4.30;;;3.23;;
68821;SDS011;55834;50.870;4.606;2024-02-14T13:36:33;5.57;;;3.80;;
68821;SDS011;55834;50.870;4.606;2024-02-14T13:38:58;4.30;;;2.22;;
68821;SDS011;55834;50.870;4.606;2024-02-14T13:41:25;3.08;;;2.33;;
68821;SDS011;55834;50.870;4.606;2024-02-14T13:43:51;4.05;;;2.78;;
68821;SDS011;55834;50.870;4.606;2024-02-14T13:46:16;3.37;;;2.20;;
68821;SDS011;55834;50.870;4.606;2024-02-14T13:48:43;4.10;;;2.30;;
68821;SDS011;55834;50.870;4.606;2024-02-14T13:51:08;3.67;;;2.30;;
68821;SDS011;55834;50.870;4.606;2024-02-14T13:53:34;4.57;;;1.88;;
68821;SDS011;55834;50.870;4.606;2024-02-14T13:56:00;7.73;;;2.03;;
68821;SDS011;55834;50.870;4.606;2024-02-14T13:58:25;4.10;;;1.73;;
68821;SDS011;55834;50.870;4.606;2024-02-14T14:00:51;4.90;;;1.80;;
68821;SDS011;55834;50.870;4.606;2024-02-14T14:03:17;2.63;;;2.10;;
68821;SDS011;55834;50.870;4.606;2024-02-14T14:05:43;4.35;;;1.63;;
68821;SDS011;55834;50.870;4.606;2024-02-14T14:08:08;2.08;;;1.60;;
68821;SDS011;55834;50.870;4.606;2024-02-14T14:10:34;4.38;;;2.05;;
68821;SDS011;55834;50.870;4.606;2024-02-14T14:12:59;5.40;;;2.70;;
68821;SDS011;55834;50.870;4.606;2024-02-14T14:15:24;3.17;;;1.80;;
68821;SDS011;55834;50.870;4.606;2024-02-14T14:17:51;1.55;;;1.10;;
68821;SDS011;55834;50.870;4.606;2024-02-14T14:20:17;2.35;;;1.58;;
68821;SDS011;55834;50.870;4.606;2024-02-14T14:22:43;2.30;;;1.45;;
68821;SDS011;55834;50.870;4.606;2024-02-14T14:25:08;4.03;;;2.40;;
68821;SDS011;55834;50.870;4.606;2024-02-14T14:27:34;2.15;;;1.55;;
68821;SDS011;55834;50.870;4.606;2024-02-14T14:30:00;4.55;;;1.77;;
68821;SDS011;55834;50.870;4.606;2024-02-14T14:32:25;2.13;;;1.63;;
68821;SDS011;55834;50.870;4.606;2024-02-14T14:34:50;2.88;;;2.28;;
68821;SDS011;55834;50.870;4.606;2024-02-14T14:37:16;3.50;;;2.07;;
68821;SDS011;55834;50.870;4.606;2024-02-14T14:39:41;1.43;;;1.33;;
68821;SDS011;55834;50.870;4.606;2024-02-14T14:42:08;2.13;;;1.50;;
68821;SDS011;55834;50.870;4.606;2024-02-14T14:44:34;4.60;;;1.85;;
68821;SDS011;55834;50.870;4.606;2024-02-14T14:47:00;7.43;;;3.95;;
68821;SDS011;55834;50.870;4.606;2024-02-14T14:49:25;3.30;;;2.72;;